Time;durP1;ratioP1;P1;durP2;ratioP2;P2;SDS_P1;SDS_P2;PMS_P1;PMS_P2;Temp;Humidity;BMP_temperature;BMP_pressure;BME280_temperature;BME280_humidity;BME280_pressure;Samples;Min_cycle;Max_cycle;Signal;HPM_P1;HPM_P2
2022/08/19 00:01:19;;;;;;;9.10;8.30;;;;;;;24.13;61.43;96060.41;1701989;83;21107;-81
2022/08/19 00:03:45;;;;;;;9.18;8.25;;;;;;;24.16;62.87;96065.70;1716289;82;21415;-82
2022/08/19 00:06:10;;;;;;;8.75;7.85;;;;;;;24.16;61.25;96066.50;1721989;82;21085;-82
2022/08/19 00:08:36;;;;;;;9.43;8.63;;;;;;;24.23;60.69;96060.86;1720832;82;20940;-81
2022/08/19 00:11:02;;;;;;;7.75;6.95;;;;;;;24.31;60.88;96060.33;1719090;82;22026;-82
2022/08/19 00:13:28;;;;;;;10.32;8.18;;;;;;;24.36;59.61;96056.83;1706747;82;21546;-82
2022/08/19 00:15:55;;;;;;;7.95;7.20;;;;;;;24.44;60.00;96050.41;1704701;82;21042;-81
2022/08/19 00:18:21;;;;;;;8.98;7.47;;;;;;;24.46;59.55;96044.81;1705123;82;21358;-81
2022/08/19 00:20:47;;;;;;;7.28;6.67;;;;;;;24.48;59.45;96044.00;1699978;83;20998;-81
2022/08/19 00:23:13;;;;;;;8.03;7.22;;;;;;;24.52;58.18;96048.47;1702167;83;21008;-82
2022/08/19 00:25:39;;;;;;;7.53;6.78;;;;;;;24.61;58.41;96046.02;1707042;82;21413;-81
2022/08/19 00:28:04;;;;;;;8.33;6.72;;;;;;;24.65;57.79;96039.61;1703641;82;21019;-81
2022/08/19 00:30:30;;;;;;;8.08;7.28;;;;;;;24.72;57.34;96039.53;1701874;82;20996;-81
2022/08/19 00:32:57;;;;;;;7.60;6.75;;;;;;;24.80;57.19;96042.13;1703351;82;21000;-81
2022/08/19 00:35:23;;;;;;;8.83;7.00;;;;;;;24.85;56.54;96038.09;1701216;83;20960;-82
2022/08/19 00:37:49;;;;;;;8.30;7.40;;;;;;;24.91;55.78;96046.29;1703818;82;21094;-82
2022/08/19 00:40:16;;;;;;;7.30;6.62;;;;;;;24.99;54.01;96037.69;1702743;83;21052;-81
2022/08/19 00:42:42;;;;;;;7.75;6.87;;;;;;;25.10;55.50;96032.56;1702156;82;21041;-82
2022/08/19 00:45:17;;;;;;;7.00;6.42;;;;;;;25.13;55.08;96033.32;1700894;83;21020;-81
2022/08/19 00:47:44;;;;;;;7.85;6.60;;;;;;;25.16;54.95;96028.52;1703914;83;20960;-81
2022/08/19 00:50:10;;;;;;;7.40;6.80;;;;;;;25.18;54.40;96026.36;1706014;82;21029;-81
2022/08/19 00:52:41;;;;;;;7.30;6.60;;;;;;;25.23;54.73;96014.36;1715015;82;21027;-81
2022/08/19 00:55:10;;;;;;;7.83;6.80;;;;;;;25.23;54.54;96016.48;1748185;80;21057;-80
2022/08/19 00:57:39;;;;;;;7.53;6.92;;;;;;;25.22;54.94;96016.23;1750112;80;20965;-81
2022/08/19 01:00:11;;;;;;;7.85;6.95;;;;;;;25.18;54.87;96015.19;1749764;80;20997;-81
2022/08/19 01:02:37;;;;;;;7.78;6.33;;;;;;;25.16;54.67;96016.01;1749958;80;21003;-81
2022/08/19 01:05:06;;;;;;;7.05;6.28;;;;;;;25.17;54.27;96018.92;1749657;80;21486;-81
2022/08/19 01:07:34;;;;;;;9.48;6.42;;;;;;;25.28;54.01;96015.63;1748355;80;21022;-81
2022/08/19 01:10:00;;;;;;;6.42;5.83;;;;;;;25.30;53.76;96010.81;1749618;80;21059;-81
2022/08/19 01:12:26;;;;;;;8.60;6.58;;;;;;;25.30;53.76;96010.81;1751183;80;21638;-80
2022/08/19 01:14:51;;;;;;;6.95;6.28;;;;;;;25.32;53.50;96013.44;1745007;80;20964;-81
2022/08/19 01:17:17;;;;;;;7.08;6.47;;;;;;;25.34;53.33;96016.59;1751081;80;21049;-80
2022/08/19 01:19:43;;;;;;;7.37;6.67;;;;;;;25.39;53.10;96021.08;1751500;80;20954;-81
2022/08/19 01:22:18;;;;;;;6.47;5.87;;;;;;;25.39;53.31;96014.44;1748371;80;21477;-81
2022/08/19 01:24:44;;;;;;;7.05;6.33;;;;;;;25.37;53.34;96008.58;1746253;81;20986;-82
2022/08/19 01:27:09;;;;;;;7.05;6.35;;;;;;;25.34;53.07;96013.94;1747765;80;20995;-81
2022/08/19 01:29:38;;;;;;;7.35;6.65;;;;;;;25.32;51.60;96002.80;1746741;80;20977;-81
2022/08/19 01:32:04;;;;;;;8.15;6.20;;;;;;;25.35;52.88;95998.77;1751239;80;20996;-82
2022/08/19 01:34:30;;;;;;;7.10;6.50;;;;;;;25.35;51.97;95995.57;1748785;80;21068;-82
2022/08/19 01:36:56;;;;;;;8.08;6.15;;;;;;;25.38;52.42;95997.69;1749118;80;21476;-82
2022/08/19 01:39:24;;;;;;;6.65;6.10;;;;;;;25.41;52.01;95989.13;1750639;80;20984;-82
2022/08/19 01:41:50;;;;;;;7.90;6.90;;;;;;;25.45;51.63;96002.65;1748774;80;20989;-82
2022/08/19 01:44:15;;;;;;;6.87;6.17;;;;;;;25.49;52.10;95993.02;1749716;80;20965;-82
2022/08/19 01:46:42;;;;;;;6.28;5.78;;;;;;;25.52;51.97;95988.45;1747505;80;21050;-82
2022/08/19 01:49:08;;;;;;;7.03;6.28;;;;;;;25.59;52.11;95999.55;1752585;81;21013;-82
2022/08/19 01:51:34;;;;;;;6.67;6.08;;;;;;;25.59;52.11;95999.55;1741785;81;21088;-82
2022/08/19 01:54:00;;;;;;;6.92;6.30;;;;;;;25.58;51.39;95991.31;1721040;82;21415;-82
2022/08/19 01:56:25;;;;;;;8.45;6.53;;;;;;;25.63;51.52;95984.58;1725904;82;20988;-82
2022/08/19 01:58:56;;;;;;;7.40;6.05;;;;;;;25.63;51.56;95990.44;1720984;82;21011;-81
2022/08/19 02:01:22;;;;;;;7.15;6.55;;;;;;;25.61;51.41;95991.27;1693308;81;21031;-81
2022/08/19 02:03:47;;;;;;;6.72;6.12;;;;;;;25.62;51.21;95983.54;1695671;82;21473;-81
2022/08/19 02:06:13;;;;;;;6.85;6.10;;;;;;;25.60;50.85;95982.50;1721975;82;21063;-81
2022/08/19 02:08:39;;;;;;;7.10;5.83;;;;;;;25.61;51.46;95980.62;1724414;82;20944;-81
2022/08/19 02:11:06;;;;;;;7.33;6.20;;;;;;;25.60;51.12;95983.04;1721431;82;21093;-81
2022/08/19 02:13:33;;;;;;;7.65;6.60;;;;;;;25.59;51.23;95982.79;1720216;82;21077;-81
2022/08/19 02:15:59;;;;;;;7.72;6.42;;;;;;;25.54;51.32;95978.31;1728209;82;22307;-81
2022/08/19 02:18:26;;;;;;;8.20;6.00;;;;;;;25.54;51.32;95978.31;1720440;82;21076;-82
2022/08/19 02:20:52;;;;;;;8.03;6.70;;;;;;;25.57;51.41;95990.27;1730660;81;21050;-82
2022/08/19 02:23:17;;;;;;;7.40;6.65;;;;;;;25.57;51.14;95989.73;1726341;82;21115;-82
2022/08/19 02:25:45;;;;;;;7.53;6.37;;;;;;;25.58;51.27;95976.68;1723017;82;21003;-82
2022/08/19 02:28:11;;;;;;;6.97;6.22;;;;;;;25.57;51.26;95973.77;1726494;82;20984;-83
2022/08/19 02:30:38;;;;;;;7.58;6.87;;;;;;;25.57;51.26;95973.77;1724580;82;20980;-82
2022/08/19 02:33:04;;;;;;;7.90;6.47;;;;;;;25.55;51.10;95979.13;1719782;82;21110;-82
2022/08/19 02:35:30;;;;;;;8.60;6.45;;;;;;;25.49;51.14;95961.63;1728668;82;21458;-82
2022/08/19 02:40:40;;;;;;;8.30;6.00;;;;;;;25.58;51.04;95966.58;1725088;82;21009;-82
2022/08/19 02:43:08;;;;;;;7.83;6.50;;;;;;;25.58;51.04;95966.58;1727038;82;21035;-82
2022/08/19 02:45:39;;;;;;;7.22;6.53;;;;;;;25.60;51.04;95977.72;1729407;81;20957;-83
2022/08/19 02:48:05;;;;;;;6.47;5.87;;;;;;;25.59;50.94;95975.59;1725417;81;20958;-82
2022/08/19 02:50:32;;;;;;;8.20;6.75;;;;;;;25.62;50.73;95976.89;1716635;82;21342;-81
2022/08/19 02:52:57;;;;;;;7.50;6.30;;;;;;;25.62;50.84;95971.03;1734789;80;21037;-81
2022/08/19 02:55:23;;;;;;;6.92;6.20;;;;;;;25.62;50.84;95971.03;1740188;81;21013;-81
2022/08/19 02:57:49;;;;;;;7.90;7.20;;;;;;;25.64;50.79;95966.20;1739884;80;21008;-80
2022/08/19 03:00:15;;;;;;;6.87;6.05;;;;;;;25.65;50.54;95967.00;1744842;81;21096;-81
2022/08/19 03:02:41;;;;;;;8.13;7.03;;;;;;;25.63;51.15;95973.16;1743961;80;21033;-80
2022/08/19 03:05:09;;;;;;;6.95;6.17;;;;;;;25.60;51.33;95986.49;1737301;80;21436;-80
2022/08/19 03:07:36;;;;;;;9.13;6.25;;;;;;;25.48;51.29;95978.67;1743421;80;21077;-80
2022/08/19 03:10:03;;;;;;;8.75;7.35;;;;;;;25.45;51.09;95974.72;1739311;81;20990;-80
2022/08/19 03:12:29;;;;;;;8.63;6.67;;;;;;;25.40;51.28;95969.47;1742771;80;20992;-80
2022/08/19 03:14:55;;;;;;;7.40;6.62;;;;;;;25.45;51.55;95977.37;1738753;81;21025;-80
2022/08/19 03:17:20;;;;;;;7.40;5.92;;;;;;;25.42;52.00;95972.64;1749369;81;20996;-81
2022/08/19 03:19:46;;;;;;;6.87;6.17;;;;;;;25.36;51.79;95981.73;1753376;80;20976;-80
2022/08/19 03:22:12;;;;;;;6.53;5.92;;;;;;;25.31;51.63;95975.95;1747179;80;21458;-84
2022/08/19 03:24:38;;;;;;;7.33;6.30;;;;;;;25.34;51.89;95978.03;1748118;81;20942;-82
2022/08/19 03:27:04;;;;;;;7.47;6.72;;;;;;;25.32;51.98;95971.42;1751578;80;21051;-82
2022/08/19 03:29:31;;;;;;;7.15;6.28;;;;;;;25.29;51.36;95975.98;1746516;80;21479;-82
2022/08/19 03:32:00;;;;;;;7.22;6.53;;;;;;;25.32;51.54;95976.20;1739323;80;20999;-82
2022/08/19 03:34:29;;;;;;;7.47;6.72;;;;;;;25.34;51.72;95977.24;1741322;80;21538;-81
2022/08/19 03:36:57;;;;;;;9.58;6.25;;;;;;;25.31;51.51;95982.59;1738449;80;20995;-81
2022/08/19 03:39:24;;;;;;;7.12;6.37;;;;;;;25.30;51.86;95978.36;1747156;80;21084;-82
2022/08/19 03:41:51;;;;;;;7.37;6.60;;;;;;;25.30;51.33;95976.23;1745261;80;21552;-82
2022/08/19 03:44:21;;;;;;;6.72;6.10;;;;;;;25.30;51.37;95966.93;1748299;80;20972;-81
2022/08/19 03:46:55;;;;;;;7.50;6.80;;;;;;;25.34;51.54;95975.38;1740593;81;20988;-82
2022/08/19 03:49:21;;;;;;;7.58;6.75;;;;;;;25.34;51.23;95974.59;1742309;80;21010;-82
2022/08/19 03:51:48;;;;;;;7.30;6.58;;;;;;;25.32;51.24;95978.07;1748734;81;21474;-81
2022/08/19 03:54:15;;;;;;;6.28;5.60;;;;;;;25.33;51.44;95991.62;1730686;81;21055;-82
2022/08/19 03:56:42;;;;;;;8.45;6.20;;;;;;;25.33;51.44;95991.62;1717087;82;20992;-81
2022/08/19 03:59:13;;;;;;;8.15;7.42;;;;;;;25.28;51.47;95999.13;1723116;82;20952;-82
2022/08/19 04:01:39;;;;;;;10.23;7.25;;;;;;;25.28;51.47;95999.13;1714593;82;21414;-81
2022/08/19 04:04:05;;;;;;;6.97;6.37;;;;;;;25.33;51.11;96004.38;1719437;82;21045;-82
2022/08/19 04:06:33;;;;;;;7.40;6.62;;;;;;;25.33;51.11;96004.38;1724984;82;21021;-81
2022/08/19 04:09:01;;;;;;;7.47;6.58;;;;;;;25.36;51.20;95999.02;1725417;82;21342;-81
2022/08/19 04:11:40;;;;;;;7.87;6.85;;;;;;;25.39;52.51;96001.14;1719389;82;21476;-81
2022/08/19 04:14:05;;;;;;;7.85;6.10;;;;;;;25.36;51.41;96005.67;1731594;82;20994;-80
2022/08/19 04:16:32;;;;;;;6.83;6.15;;;;;;;25.37;51.65;96021.87;1695738;81;21951;-80
2022/08/19 04:19:00;;;;;;;6.95;5.87;;;;;;;25.35;53.21;96026.69;1721179;82;21053;-81
2022/08/19 04:21:26;;;;;;;9.08;6.72;;;;;;;25.29;54.18;96042.47;1718867;82;20975;-80
2022/08/19 04:23:53;;;;;;;6.85;6.15;;;;;;;25.17;54.67;96038.86;1727733;82;21431;-80
2022/08/19 04:26:23;;;;;;;7.53;6.83;;;;;;;25.03;54.58;96031.30;1724851;82;20995;-80
2022/08/19 04:28:51;;;;;;;7.70;7.00;;;;;;;24.71;55.35;96034.50;1725774;82;21001;-80
2022/08/19 04:31:27;;;;;;;11.12;8.15;;;;;;;24.71;55.35;96034.50;1722196;82;20981;-80
2022/08/19 04:33:57;;;;;;;10.08;8.18;;;;;;;24.62;55.17;96042.30;1725439;82;20959;-80
2022/08/19 04:36:29;;;;;;;8.90;8.00;;;;;;;24.53;55.54;96047.40;1718111;82;21437;-80
2022/08/19 04:38:59;;;;;;;9.15;8.28;;;;;;;24.43;56.34;96044.05;1721444;82;21352;-80
2022/08/19 04:44:10;;;;;;;9.80;7.97;;;;;;;24.29;57.14;96071.76;1708765;82;20997;-81
2022/08/19 04:46:35;;;;;;;9.20;8.35;;;;;;;24.22;58.23;96054.77;1708182;82;21028;-81
2022/08/19 04:49:04;;;;;;;10.03;9.03;;;;;;;24.14;58.41;96063.86;1729816;82;21017;-81
2022/08/19 04:51:31;;;;;;;9.25;8.45;;;;;;;24.13;58.31;96064.94;1712645;82;21042;-81
2022/08/19 04:53:57;;;;;;;9.95;8.95;;;;;;;24.10;58.50;96066.81;1725230;81;21014;-81
2022/08/19 04:56:25;;;;;;;10.30;8.53;;;;;;;24.08;59.73;96067.59;1741542;81;21451;-80
2022/08/19 04:58:53;;;;;;;10.18;9.05;;;;;;;24.04;60.41;96060.72;1739369;80;20953;-81
2022/08/19 05:01:26;;;;;;;9.85;8.75;;;;;;;24.00;61.01;96058.91;1734361;80;21419;-81
2022/08/19 05:03:52;;;;;;;10.63;8.48;;;;;;;23.96;61.75;96061.31;1743318;81;21026;-80
2022/08/19 05:06:20;;;;;;;8.53;7.72;;;;;;;23.90;62.41;96067.16;1739853;81;21614;-80
2022/08/19 05:08:45;;;;;;;8.40;7.28;;;;;;;23.87;62.83;96077.53;1734898;80;20972;-80
2022/08/19 05:11:15;;;;;;;8.98;7.60;;;;;;;23.84;63.35;96076.23;1741332;81;20960;-80
2022/08/19 05:13:43;;;;;;;8.95;8.05;;;;;;;23.80;63.68;96078.38;1737368;80;20933;-81
2022/08/19 05:16:09;;;;;;;10.03;8.23;;;;;;;23.75;63.71;96067.23;1735869;80;20933;-80
2022/08/19 05:24:08;;;;;;;7.75;7.08;;;;;;;23.73;65.63;96069.38;1750305;81;21012;-81
2022/08/19 05:26:42;;;;;;;8.33;7.62;;;;;;;23.70;65.64;96069.92;1739945;80;21043;-82
2022/08/19 05:29:08;;;;;;;9.65;7.42;;;;;;;23.67;66.33;96069.14;1731295;81;20960;-83
2022/08/19 05:31:35;;;;;;;7.78;7.12;;;;;;;23.64;64.78;96067.05;1742692;81;21033;-82
2022/08/19 05:34:01;;;;;;;10.20;9.10;;;;;;;23.65;65.58;96080.56;1735805;81;21022;-82
2022/08/19 05:36:27;;;;;;;8.38;7.55;;;;;;;23.66;65.79;96086.13;1735668;80;20996;-82
2022/08/19 05:38:53;;;;;;;9.00;8.10;;;;;;;23.70;66.52;96087.70;1736863;81;21397;-82
2022/08/19 05:41:19;;;;;;;11.60;9.88;;;;;;;23.72;66.53;96094.84;1737015;80;21018;-81
2022/08/19 05:43:45;;;;;;;8.28;7.47;;;;;;;23.74;66.31;96082.10;1738615;80;20968;-81
2022/08/19 05:46:18;;;;;;;7.15;6.45;;;;;;;23.73;67.17;96087.94;1738470;81;21411;-81
2022/08/19 05:48:43;;;;;;;9.63;7.65;;;;;;;23.75;67.36;96091.11;1735208;80;21337;-81
2022/08/19 05:51:10;;;;;;;8.35;7.60;;;;;;;23.76;67.84;96090.61;1739985;81;21009;-82
2022/08/19 05:53:36;;;;;;;11.38;7.40;;;;;;;23.74;68.09;96088.20;1730660;80;21427;-80
2022/08/19 05:56:08;;;;;;;9.63;7.42;;;;;;;23.73;68.63;96085.82;1726354;81;21036;-82
2022/08/19 05:58:35;;;;;;;7.35;6.70;;;;;;;23.71;68.63;96087.95;1722127;81;21036;-81
2022/08/19 06:01:04;;;;;;;9.70;7.35;;;;;;;23.71;69.10;96094.59;1717899;81;20965;-82
2022/08/19 06:03:28;;;;;;;7.80;7.00;;;;;;;23.73;69.03;96092.45;1724447;81;22322;-81
2022/08/19 06:05:54;;;;;;;10.38;7.37;;;;;;;23.75;69.20;96085.02;1724229;81;20989;-80
2022/08/19 06:08:20;;;;;;;10.13;7.37;;;;;;;23.77;69.52;96089.01;1693966;81;21025;-81
2022/08/19 06:10:47;;;;;;;7.65;6.85;;;;;;;23.79;68.66;96080.24;1724688;81;21036;-80
2022/08/19 06:13:13;;;;;;;7.62;6.83;;;;;;;23.88;66.16;96091.85;1714342;81;21403;-80
2022/08/19 06:15:38;;;;;;;7.45;6.65;;;;;;;24.01;67.15;96085.16;1722996;81;20990;-81
2022/08/19 06:18:04;;;;;;;7.87;7.17;;;;;;;24.14;65.32;96083.77;1722911;81;21001;-81
2022/08/19 06:20:32;;;;;;;8.48;6.45;;;;;;;24.28;65.09;96092.71;1721880;81;20976;-81
2022/08/19 06:22:58;;;;;;;11.70;7.00;;;;;;;24.40;63.88;96097.69;1727910;81;21500;-81
2022/08/19 06:25:24;;;;;;;9.10;6.95;;;;;;;24.51;63.43;96093.36;1724545;81;21072;-81
2022/08/19 06:27:50;;;;;;;8.98;7.10;;;;;;;24.59;62.80;96101.83;1723387;81;21021;-81
2022/08/19 06:30:16;;;;;;;7.55;6.67;;;;;;;24.66;61.11;96092.45;1725817;81;21411;-80
2022/08/19 06:32:41;;;;;;;8.75;7.15;;;;;;;24.79;61.16;96099.00;1722136;81;20936;-81
2022/08/19 06:35:07;;;;;;;8.20;6.55;;;;;;;24.88;60.62;96101.30;1719329;81;20993;-81
2022/08/19 06:37:33;;;;;;;7.95;7.15;;;;;;;24.95;60.23;96101.78;1721046;81;20960;-81
2022/08/19 06:39:59;;;;;;;7.72;6.90;;;;;;;25.03;59.51;96103.06;1730290;81;20987;-80
2022/08/19 06:42:25;;;;;;;7.78;7.08;;;;;;;25.10;59.43;96104.88;1723029;81;21548;-81
2022/08/19 06:44:50;;;;;;;7.42;6.72;;;;;;;25.18;59.40;96112.23;1719068;81;21001;-82
2022/08/19 06:47:20;;;;;;;9.28;6.40;;;;;;;25.28;58.72;96110.02;1723227;81;20940;-80
2022/08/19 06:49:45;;;;;;;7.08;6.28;;;;;;;25.39;57.60;96112.30;1718111;81;21364;-80
2022/08/19 06:52:11;;;;;;;7.12;6.30;;;;;;;25.58;57.28;96112.35;1715128;81;20992;-81
2022/08/19 06:54:39;;;;;;;7.62;6.30;;;;;;;25.58;57.28;96112.35;1736548;80;21038;-81
2022/08/19 06:57:05;;;;;;;7.03;6.33;;;;;;;25.63;57.22;96109.62;1741205;80;21053;-80
2022/08/19 06:59:32;;;;;;;7.72;6.60;;;;;;;25.75;56.27;96106.60;1740749;80;20978;-81
2022/08/19 07:01:59;;;;;;;7.22;6.60;;;;;;;25.75;56.27;96106.60;1744185;80;21349;-81
2022/08/19 07:04:28;;;;;;;6.70;6.00;;;;;;;25.96;56.45;96117.78;1742101;80;20998;-81
2022/08/19 07:07:01;;;;;;;7.62;6.78;;;;;;;25.96;56.45;96117.78;1748003;80;20981;-81
2022/08/19 07:09:27;;;;;;;7.40;6.55;;;;;;;26.06;56.39;96134.97;1708948;82;21493;-81
2022/08/19 07:11:54;;;;;;;7.55;6.35;;;;;;;26.14;55.78;96141.52;1721973;82;21020;-81
2022/08/19 07:14:24;;;;;;;7.83;6.22;;;;;;;26.21;55.83;96148.08;1700677;83;20970;-81
2022/08/19 07:16:51;;;;;;;7.58;6.60;;;;;;;26.27;55.09;96152.79;1700547;82;21108;-81
2022/08/19 07:19:18;;;;;;;7.30;6.62;;;;;;;26.31;55.24;96146.59;1700815;82;20956;-82
2022/08/19 07:21:44;;;;;;;7.50;6.80;;;;;;;26.38;55.11;96154.82;1701558;82;21000;-81
2022/08/19 07:24:10;;;;;;;8.35;6.12;;;;;;;26.43;54.80;96146.75;1698664;82;21467;-81
2022/08/19 07:26:42;;;;;;;7.65;6.85;;;;;;;26.46;54.63;96150.95;1697909;82;21099;-80
2022/08/19 07:29:11;;;;;;;8.98;6.37;;;;;;;26.52;54.32;96150.33;1700734;82;21387;-81
2022/08/19 07:31:36;;;;;;;7.42;6.42;;;;;;;26.56;54.88;96152.69;1698344;82;20976;-81
2022/08/19 07:34:07;;;;;;;8.53;6.78;;;;;;;26.61;54.61;96157.94;1678858;83;21046;-81
2022/08/19 07:36:33;;;;;;;10.55;6.53;;;;;;;26.66;54.14;96160.52;1717932;83;21390;-81
2022/08/19 07:39:00;;;;;;;7.87;7.08;;;;;;;26.72;54.14;96159.37;1720147;82;21013;-81
2022/08/19 07:41:31;;;;;;;7.45;6.75;;;;;;;26.80;55.09;96161.91;1711842;83;21029;-81
2022/08/19 07:44:03;;;;;;;7.95;6.70;;;;;;;26.83;53.98;96153.33;1699150;82;22097;-81
2022/08/19 07:46:28;;;;;;;8.43;6.50;;;;;;;26.82;53.45;96151.21;1713106;82;20966;-81
2022/08/19 07:48:53;;;;;;;7.40;6.60;;;;;;;26.90;54.26;96161.23;1711662;83;21082;-81
2022/08/19 07:51:22;;;;;;;7.37;6.67;;;;;;;26.92;54.39;96160.39;1712666;83;21074;-81
2022/08/19 07:53:49;;;;;;;8.70;6.80;;;;;;;26.93;54.52;96163.84;1701691;81;21067;-81
2022/08/19 07:56:16;;;;;;;7.10;6.40;;;;;;;26.95;54.12;96168.89;1742502;80;21966;-81
2022/08/19 07:58:43;;;;;;;8.03;7.17;;;;;;;26.94;53.91;96174.76;1717313;80;20946;-80
2022/08/19 08:01:13;;;;;;;7.78;7.08;;;;;;;26.95;54.00;96168.89;1744224;80;21322;-81
2022/08/19 08:09:10;;;;;;;7.58;6.87;;;;;;;27.00;54.62;96197.61;1751634;81;21038;-81
2022/08/19 08:11:42;;;;;;;8.00;6.55;;;;;;;27.02;54.22;96196.02;1743237;81;20983;-81
2022/08/19 08:14:08;;;;;;;7.70;6.90;;;;;;;27.02;54.10;96195.47;1751069;80;20953;-81
2022/08/19 08:16:37;;;;;;;9.25;6.75;;;;;;;26.99;54.33;96191.20;1749325;80;21329;-81
2022/08/19 08:19:06;;;;;;;7.33;6.50;;;;;;;26.95;54.19;96194.21;1751169;80;21019;-81
2022/08/19 08:21:33;;;;;;;8.98;5.97;;;;;;;26.88;53.68;96188.72;1750504;80;20975;-81
2022/08/19 08:23:59;;;;;;;7.67;7.00;;;;;;;26.80;53.51;96192.03;1750254;80;21079;-81
2022/08/19 08:26:25;;;;;;;7.67;6.90;;;;;;;26.76;54.55;96189.70;1752008;80;21423;-81
2022/08/19 08:28:52;;;;;;;8.58;7.22;;;;;;;26.72;54.72;96190.57;1751048;80;20987;-80
2022/08/19 08:31:18;;;;;;;8.48;6.83;;;;;;;26.70;55.49;96186.07;1748149;80;21027;-81
2022/08/19 08:33:44;;;;;;;7.42;6.62;;;;;;;26.67;54.58;96186.09;1750543;80;21036;-80
2022/08/19 08:36:11;;;;;;;10.13;7.37;;;;;;;26.69;55.70;96189.82;1747529;80;21491;-81
2022/08/19 08:38:37;;;;;;;8.98;6.50;;;;;;;26.70;55.07;96190.86;1751320;80;20992;-80
2022/08/19 08:41:29;;;;;;;7.72;6.87;;;;;;;26.72;55.41;96190.57;1744897;80;20957;-80
2022/08/19 08:43:56;;;;;;;7.75;6.87;;;;;;;26.71;56.39;96187.66;1741326;80;21253;-81
2022/08/19 08:46:48;;;;;;;7.55;6.85;;;;;;;26.70;55.71;96190.07;1759456;80;20986;-81
2022/08/19 08:49:53;;;;;;;8.38;6.90;;;;;;;26.69;56.73;96186.61;1756989;81;20977;-81
2022/08/19 08:52:27;;;;;;;9.05;6.72;;;;;;;26.63;57.01;96178.42;1753968;80;21038;-81
2022/08/19 08:54:58;;;;;;;8.28;6.40;;;;;;;26.57;56.33;96188.38;1753424;80;21022;-81
2022/08/19 08:57:39;;;;;;;7.55;6.85;;;;;;;26.52;57.09;96186.30;1752430;80;21018;-81
2022/08/19 09:00:10;;;;;;;7.40;6.70;;;;;;;26.46;57.90;96184.25;1750059;80;21022;-82
2022/08/19 09:02:36;;;;;;;;;;;;;;;26.41;57.72;96180.88;1748434;82;20956;-81
2022/08/19 09:05:03;;;;;;;9.03;6.53;;;;;;;26.36;56.62;96182.25;1751298;80;20530;-80
2022/08/19 09:07:55;;;;;;;9.78;6.90;;;;;;;26.34;56.76;96179.85;1749315;80;20965;-81
2022/08/19 09:10:38;;;;;;;7.70;6.87;;;;;;;26.38;56.79;96180.13;1746899;80;21359;-81
2022/08/19 09:13:31;;;;;;;8.83;6.90;;;;;;;26.39;56.92;96181.16;1746800;80;21127;-81
2022/08/19 09:16:04;;;;;;;7.85;7.08;;;;;;;26.41;56.72;96184.88;1745844;80;21381;-80
2022/08/19 09:18:48;;;;;;;9.35;6.80;;;;;;;26.43;57.07;96182.71;1729245;81;21018;-81
2022/08/19 09:21:15;;;;;;;8.48;7.05;;;;;;;26.42;56.52;96185.91;1742898;80;21367;-80
2022/08/19 09:23:42;;;;;;;7.95;7.15;;;;;;;26.41;56.29;96187.53;1746755;80;21033;-81
2022/08/19 09:26:14;;;;;;;8.40;7.55;;;;;;;26.41;56.44;96182.21;1745348;80;22031;-81
2022/08/19 09:28:43;;;;;;;8.63;7.12;;;;;;;26.43;56.52;96184.84;1746572;80;21210;-80
2022/08/19 09:31:12;;;;;;;7.80;7.00;;;;;;;26.47;56.33;96181.05;1729376;81;21008;-81
2022/08/19 09:33:38;;;;;;;8.58;6.92;;;;;;;26.53;56.79;96179.92;1741227;82;21029;-81
2022/08/19 09:36:09;;;;;;;9.78;7.45;;;;;;;26.59;57.21;96179.55;1743815;80;21338;-80
2022/08/19 09:38:35;;;;;;;;;;;;;;;26.62;55.80;96188.83;1749810;80;20967;-81
2022/08/19 09:41:09;;;;;;;9.15;7.60;;;;;;;26.66;55.00;96181.05;1745066;80;20194;-81
2022/08/19 09:43:36;;;;;;;7.90;7.12;;;;;;;26.70;56.61;96191.41;1744967;82;20966;-81
2022/08/19 09:46:04;;;;;;;7.20;6.50;;;;;;;26.70;55.69;96189.53;1747396;80;20951;-81
2022/08/19 09:48:30;;;;;;;8.23;7.40;;;;;;;26.71;56.76;96186.32;1745233;81;20968;-80
2022/08/19 09:50:57;;;;;;;8.78;7.87;;;;;;;26.70;56.38;96192.20;1725576;82;21391;-81
2022/08/19 09:53:24;;;;;;;7.55;6.83;;;;;;;26.72;56.19;96203.89;1695644;81;21029;-81
2022/08/19 09:55:51;;;;;;;8.18;7.10;;;;;;;26.75;56.64;96194.78;1737953;80;20975;-81
2022/08/19 09:58:17;;;;;;;8.13;7.20;;;;;;;26.81;57.29;96198.94;1742830;80;21049;-81
2022/08/19 10:00:43;;;;;;;7.97;7.28;;;;;;;26.85;57.78;96193.84;1740758;80;20927;-81
2022/08/19 10:03:09;;;;;;;8.20;7.40;;;;;;;26.87;57.21;96193.80;1736252;80;21328;-81
2022/08/19 10:05:49;;;;;;;8.05;7.35;;;;;;;26.87;57.75;96187.68;1741212;81;20990;-81
2022/08/19 10:08:23;;;;;;;8.25;7.35;;;;;;;26.91;58.25;96192.13;1738381;80;21010;-81
2022/08/19 10:10:50;;;;;;;8.60;6.95;;;;;;;26.90;58.51;96193.22;1743593;80;20972;-82
2022/08/19 10:13:22;;;;;;;9.45;8.33;;;;;;;26.89;57.72;96188.97;1744044;80;21406;-81
2022/08/19 10:15:48;;;;;;;8.30;7.50;;;;;;;26.89;58.42;96186.30;1742105;80;21469;-81
2022/08/19 10:18:17;;;;;;;8.20;7.50;;;;;;;26.88;59.69;96186.05;1749478;80;21480;-82
2022/08/19 10:20:42;;;;;;;8.55;7.70;;;;;;;26.90;59.66;96187.89;1745644;80;20964;-81
2022/08/19 10:23:08;;;;;;;8.28;7.35;;;;;;;26.88;59.71;96180.72;1749854;80;20989;-80
2022/08/19 10:25:33;;;;;;;8.25;7.45;;;;;;;26.85;59.39;96183.18;1747665;80;21377;-80
2022/08/19 10:27:59;;;;;;;7.85;7.08;;;;;;;26.82;59.33;96182.41;1750350;80;21360;-81
2022/08/19 10:30:25;;;;;;;7.75;6.87;;;;;;;26.70;60.38;96164.21;1750196;80;21024;-80
2022/08/19 10:32:50;;;;;;;9.05;7.72;;;;;;;26.81;58.55;96170.95;1748370;80;21328;-80
2022/08/19 10:35:17;;;;;;;8.78;6.90;;;;;;;26.84;58.53;96171.70;1746299;81;21013;-80
2022/08/19 10:37:42;;;;;;;6.72;6.12;;;;;;;26.90;58.72;96166.56;1748801;81;21298;-80
2022/08/19 10:40:11;;;;;;;9.93;7.22;;;;;;;26.97;58.82;96168.05;1747841;80;20978;-80
2022/08/19 10:42:36;;;;;;;7.87;7.08;;;;;;;27.04;59.48;96167.97;1752194;80;20941;-80
2022/08/19 10:45:05;;;;;;;8.05;7.25;;;;;;;27.08;59.09;96162.84;1751287;81;21071;-80
2022/08/19 10:47:33;;;;;;;7.42;6.72;;;;;;;27.13;59.46;96160.88;1750190;80;21020;-81
2022/08/19 10:52:45;;;;;;;7.25;6.55;;;;;;;27.23;59.28;96159.13;1749497;80;21085;-81
2022/08/19 10:57:55;;;;;;;6.95;6.33;;;;;;;27.32;59.66;96157.36;1731410;81;21486;-80
2022/08/19 11:00:23;;;;;;;8.28;6.95;;;;;;;27.42;57.98;96154.52;1736484;81;21402;-80
2022/08/19 11:02:49;;;;;;;9.55;7.62;;;;;;;27.56;56.57;96150.53;1732915;81;20973;-80
2022/08/19 11:05:15;;;;;;;8.30;7.10;;;;;;;27.71;57.34;96158.29;1694341;83;21020;-80
2022/08/19 11:07:41;;;;;;;7.97;7.28;;;;;;;27.81;58.58;96154.86;1701910;83;21002;-80
2022/08/19 11:10:09;;;;;;;7.80;7.08;;;;;;;27.89;59.99;96161.41;1715620;83;21010;-80
2022/08/19 11:12:39;;;;;;;8.70;6.92;;;;;;;27.95;61.68;96162.88;1741254;81;21378;-80
2022/08/19 11:15:07;;;;;;;8.98;7.35;;;;;;;27.99;62.02;96165.77;1714694;81;20990;-80
2022/08/19 11:17:33;;;;;;;9.00;7.45;;;;;;;28.00;61.48;96164.67;1738034;81;20980;-80
2022/08/19 11:20:02;;;;;;;7.53;6.83;;;;;;;28.06;61.91;96172.27;1740187;81;21068;-80
2022/08/19 11:22:27;;;;;;;7.72;6.87;;;;;;;28.06;62.30;96174.94;1732911;81;21548;-80
2022/08/19 11:24:52;;;;;;;8.05;7.25;;;;;;;28.05;62.51;96169.36;1736507;81;21128;-80
2022/08/19 11:27:18;;;;;;;8.68;6.92;;;;;;;28.01;63.29;96167.05;1738410;81;21016;-80
2022/08/19 11:29:44;;;;;;;8.80;7.62;;;;;;;28.00;63.50;96162.00;1737868;81;20981;-80
2022/08/19 11:32:12;;;;;;;8.08;7.28;;;;;;;27.95;63.89;96166.09;1731752;81;20971;-80
2022/08/19 11:34:38;;;;;;;8.05;7.22;;;;;;;27.88;64.50;96163.83;1713833;81;20933;-80
2022/08/19 11:37:05;;;;;;;8.40;7.37;;;;;;;27.84;65.37;96169.52;1740621;81;20991;-80
2022/08/19 11:39:31;;;;;;;7.37;6.72;;;;;;;27.82;65.63;96169.00;1742123;81;21064;-81
2022/08/19 11:41:58;;;;;;;7.90;6.85;;;;;;;27.79;65.92;96164.26;1741030;81;21008;-80
2022/08/19 11:44:23;;;;;;;8.83;7.55;;;;;;;27.76;66.50;96162.98;1732093;81;21005;-80
2022/08/19 11:46:49;;;;;;;10.05;7.65;;;;;;;27.72;67.04;96165.20;1734460;81;20993;-80
2022/08/19 11:49:19;;;;;;;8.70;7.55;;;;;;;27.65;67.02;96162.13;1746289;81;21017;-80
2022/08/19 11:51:45;;;;;;;8.80;7.87;;;;;;;27.55;66.77;96164.42;1734430;81;21369;-80
2022/08/19 11:54:13;;;;;;;9.03;7.50;;;;;;;27.54;67.70;96155.38;1735723;81;21070;-80
2022/08/19 11:56:39;;;;;;;8.10;7.30;;;;;;;27.51;66.17;96154.10;1747952;80;20977;-80
2022/08/19 11:59:05;;;;;;;9.00;7.65;;;;;;;27.54;68.12;96154.84;1747004;81;20981;-80